Главная страница
METAR-TAF:

METAR-TAF

Аэропорты :

Игл

Eagle, Аляска, США

широта: 64-46-35N, долгота: 141-09-03W, высота над уровнем моря: 268 м

Текущие метеонаблюдения

Эта сводка был подготовлена 31 минут назад, в 02:53 UTC
Ветер 3 Узел от северный
Температура 14°C
Влажность 47%
Давление 1001 hPa
Видимость: 16.1 км
Сплошная облачность на высоте 6000 фута

METAR: PAEG 270253Z AUTO 35003KT 10SM OVC060 14/03 A2955 RMK AO2 SLP011 T01390033 55001 TSNO $

Время: 19:24 (03:24 UTC)


TAF: отсутствует

Метеонаблюдения и прогнозы для более 4000 аэропортов (сводки METAR и TAF).

Имеющиеся станции представлены на карте желтыми и красными точками.

Чтобы увидеть название станции, наведите на нее мышь.

Затем щелкните, чтобы увидеть метеонаблюдения и метеопрогнозы.

Управление картой: чтобы увеличить масштаб, щелкните зеленые кнопки с черным крестиком; чтобы уменьшить масштаб, щелкните зеленую кнопку с тире; для просмотра соседних карт щелкайте зеленые стрелки.


METAR-TAF: